Time;durP1;ratioP1;P1;durP2;ratioP2;P2;SDS_P1;SDS_P2;PMS_P1;PMS_P2;Temp;Humidity;BMP_temperature;BMP_pressure;BME280_temperature;BME280_humidity;BME280_pressure;Samples;Min_cycle;Max_cycle;Signal;HPM_P1;HPM_P2
2023/01/05 00:02:49;;;;;;;1.10;1.00;;;24.20;44.40;;;;;;6093190;28;80821;-61
2023/01/05 00:05:49;;;;;;;1.50;0.93;;;24.20;44.60;;;;;;6091269;28;80555;-62
2023/01/05 00:08:50;;;;;;;0.98;0.98;;;24.20;44.40;;;;;;6096680;28;81698;-62
2023/01/05 00:25:08;;;;;;;0.90;0.90;;;24.20;44.60;;;;;;6094268;28;80440;-63
2023/01/05 00:28:08;;;;;;;1.25;0.95;;;24.30;44.70;;;;;;6125512;28;80934;-63
2023/01/05 00:31:09;;;;;;;1.20;0.95;;;24.20;44.80;;;;;;6100794;28;80876;-63
2023/01/05 00:34:09;;;;;;;0.70;0.70;;;24.20;44.80;;;;;;6083482;28;80629;-62
2023/01/05 00:37:10;;;;;;;0.80;0.80;;;24.20;44.70;;;;;;6062943;28;80765;-62
2023/01/05 00:40:10;;;;;;;1.23;0.82;;;24.20;45.00;;;;;;6074750;28;82221;-63
2023/01/05 00:43:11;;;;;;;0.77;0.70;;;24.20;45.00;;;;;;6059713;28;80593;-60
2023/01/05 00:46:12;;;;;;;0.95;0.90;;;24.20;44.90;;;;;;6077057;28;80589;-61
2023/01/05 00:49:13;;;;;;;0.70;0.70;;;24.20;44.90;;;;;;6077190;28;80980;-61
2023/01/05 00:52:13;;;;;;;1.23;0.90;;;24.20;44.80;;;;;;6072456;28;80470;-60
2023/01/05 00:55:14;;;;;;;0.80;0.80;;;24.20;44.90;;;;;;6061263;28;80490;-61
2023/01/05 00:58:14;;;;;;;0.65;0.65;;;24.20;44.80;;;;;;6063596;28;81034;-62
2023/01/05 01:01:15;;;;;;;0.70;0.70;;;24.20;44.70;;;;;;6063320;28;82668;-66
2023/01/05 01:04:18;;;;;;;0.80;0.80;;;24.20;44.80;;;;;;6089361;28;80919;-66
2023/01/05 01:07:18;;;;;;;0.90;0.60;;;24.20;44.60;;;;;;6076402;28;83131;-68
2023/01/05 01:10:19;;;;;;;0.77;0.77;;;24.20;44.60;;;;;;6062146;28;80304;-67
2023/01/05 01:13:19;;;;;;;0.95;0.73;;;24.20;44.60;;;;;;6092515;28;80564;-66
2023/01/05 01:16:20;;;;;;;0.70;0.70;;;24.20;44.60;;;;;;6084563;28;81332;-67
2023/01/05 01:19:21;;;;;;;0.57;0.57;;;24.20;44.70;;;;;;6116729;28;82392;-67
2023/01/05 01:22:21;;;;;;;0.95;0.75;;;24.20;44.70;;;;;;6102204;28;80624;-68
2023/01/05 01:25:22;;;;;;;0.70;0.70;;;24.20;44.70;;;;;;6112759;28;82873;-68
2023/01/05 01:28:22;;;;;;;0.75;0.73;;;24.10;44.60;;;;;;6113541;28;82003;-68
2023/01/05 01:31:23;;;;;;;0.75;0.70;;;24.20;44.70;;;;;;6094281;28;80538;-68
2023/01/05 01:34:23;;;;;;;0.70;0.70;;;24.20;44.80;;;;;;6073524;28;81148;-65
2023/01/05 01:37:24;;;;;;;0.60;0.60;;;24.20;45.00;;;;;;6069218;28;80129;-63
2023/01/05 01:40:28;;;;;;;0.75;0.75;;;24.20;44.90;;;;;;6073636;28;82954;-61
2023/01/05 01:43:28;;;;;;;0.70;0.70;;;24.20;45.00;;;;;;6070427;28;80432;-62
2023/01/05 01:46:29;;;;;;;0.60;0.60;;;24.20;44.90;;;;;;6091459;28;81650;-63
2023/01/05 01:49:30;;;;;;;0.82;0.82;;;24.20;44.80;;;;;;6081542;28;81921;-63
2023/01/05 01:52:30;;;;;;;0.63;0.63;;;24.20;44.80;;;;;;6069578;28;80756;-63
2023/01/05 01:55:31;;;;;;;0.52;0.50;;;24.20;44.70;;;;;;6074711;28;82917;-60
2023/01/05 01:58:31;;;;;;;0.75;0.75;;;24.20;44.80;;;;;;6072554;28;80321;-60
2023/01/05 02:01:32;;;;;;;0.50;0.50;;;24.20;44.70;;;;;;6070039;28;81562;-60
2023/01/05 02:04:32;;;;;;;1.13;0.77;;;24.20;44.80;;;;;;6086130;28;82045;-60
2023/01/05 02:07:33;;;;;;;0.60;0.60;;;24.20;44.70;;;;;;6077704;28;80863;-60
2023/01/05 02:10:34;;;;;;;0.60;0.60;;;24.20;44.80;;;;;;6072092;28;83485;-60
2023/01/05 02:13:34;;;;;;;2.95;0.90;;;24.20;44.70;;;;;;6085321;28;81594;-67
2023/01/05 02:16:37;;;;;;;0.60;0.60;;;24.20;44.80;;;;;;6080069;28;81497;-68
2023/01/05 02:19:37;;;;;;;0.60;0.60;;;24.20;44.90;;;;;;6080072;28;81967;-67
2023/01/05 02:22:38;;;;;;;0.63;0.63;;;24.10;45.00;;;;;;6081627;28;81371;-70
2023/01/05 02:25:39;;;;;;;0.80;0.70;;;24.10;45.00;;;;;;6079475;28;89579;-69
2023/01/05 02:28:39;;;;;;;0.82;0.70;;;24.10;45.00;;;;;;6101301;28;83788;-69
2023/01/05 02:31:40;;;;;;;0.80;0.80;;;24.10;45.70;;;;;;6076833;28;82986;-70
2023/01/05 02:34:41;;;;;;;0.60;0.60;;;24.10;45.10;;;;;;6078860;28;81759;-71
2023/01/05 02:37:42;;;;;;;0.70;0.70;;;24.10;45.10;;;;;;6074912;28;81699;-70
2023/01/05 02:40:44;;;;;;;1.00;0.70;;;24.10;44.90;;;;;;6103727;28;87788;-70
2023/01/05 02:43:45;;;;;;;0.63;0.63;;;24.10;45.10;;;;;;6118178;28;81621;-70
2023/01/05 02:46:45;;;;;;;0.50;0.50;;;24.10;45.00;;;;;;6098876;28;81873;-70
2023/01/05 02:49:46;;;;;;;0.60;0.60;;;24.10;45.00;;;;;;6093352;28;82479;-69
2023/01/05 02:52:47;;;;;;;0.60;0.60;;;24.10;44.90;;;;;;6095507;28;80358;-60
2023/01/05 02:55:50;;;;;;;0.55;0.55;;;24.10;45.00;;;;;;6098962;28;83548;-61
2023/01/05 02:58:52;;;;;;;0.60;0.60;;;24.10;45.20;;;;;;6088345;28;84579;-60
2023/01/05 03:01:52;;;;;;;0.52;0.52;;;24.10;44.90;;;;;;6071195;28;81724;-61
2023/01/05 03:04:53;;;;;;;0.60;0.60;;;24.10;44.90;;;;;;6086076;28;85187;-61
2023/01/05 03:08:05;;;;;;;1.02;0.50;;;24.10;45.00;;;;;;6101561;28;83066;-63
2023/01/05 03:14:26;;;;;;;0.50;0.50;;;24.10;45.00;;;;;;6102947;28;83362;-68
2023/01/05 03:17:27;;;;;;;0.50;0.50;;;24.10;45.00;;;;;;6101192;28;83746;-66
2023/01/05 03:20:28;;;;;;;0.60;0.60;;;24.10;45.00;;;;;;6096100;28;83043;-66
2023/01/05 03:36:47;;;;;;;0.60;0.60;;;24.10;45.30;;;;;;6082856;28;80262;-71
2023/01/05 03:39:47;;;;;;;0.60;0.60;;;24.10;45.30;;;;;;6100868;28;83297;-72
2023/01/05 03:42:48;;;;;;;0.73;0.60;;;24.10;45.40;;;;;;6071691;28;81807;-70
2023/01/05 03:45:49;;;;;;;0.60;0.60;;;24.10;45.40;;;;;;6067871;28;81214;-67
2023/01/05 03:48:54;;;;;;;0.60;0.60;;;24.10;45.40;;;;;;6084504;28;83464;-67
2023/01/05 03:51:55;;;;;;;0.65;0.65;;;24.10;45.40;;;;;;6070915;28;82449;-66
2023/01/05 03:54:55;;;;;;;0.73;0.70;;;24.10;46.00;;;;;;6056662;28;80672;-67
2023/01/05 03:57:56;;;;;;;0.68;0.68;;;24.10;45.40;;;;;;6084048;28;82128;-67
2023/01/05 04:00:57;;;;;;;1.23;0.60;;;24.10;45.50;;;;;;6074089;28;80555;-66
2023/01/05 04:03:59;;;;;;;0.55;0.55;;;24.10;45.50;;;;;;6083679;28;83452;-67
2023/01/05 04:06:59;;;;;;;0.68;0.68;;;24.10;45.50;;;;;;6082078;28;82360;-67
2023/01/05 04:10:03;;;;;;;0.70;0.70;;;24.10;45.40;;;;;;6086244;28;80984;-68
2023/01/05 04:13:04;;;;;;;2.38;0.75;;;24.10;45.50;;;;;;6080074;28;83123;-67
2023/01/05 04:16:05;;;;;;;0.50;0.50;;;24.10;45.50;;;;;;6080471;28;82321;-66
2023/01/05 04:19:06;;;;;;;0.60;0.60;;;24.10;45.40;;;;;;6080362;28;83279;-67
2023/01/05 04:22:06;;;;;;;0.50;0.50;;;24.10;45.40;;;;;;6076398;28;83485;-67
2023/01/05 04:25:07;;;;;;;0.60;0.60;;;24.10;45.30;;;;;;6087666;28;83347;-67
2023/01/05 04:28:08;;;;;;;0.60;0.60;;;24.10;45.10;;;;;;6077046;28;82652;-64
2023/01/05 04:31:09;;;;;;;0.63;0.60;;;24.20;45.00;;;;;;6073085;28;81761;-66
2023/01/05 04:34:10;;;;;;;0.60;0.60;;;24.20;44.90;;;;;;6071856;28;82713;-69
2023/01/05 04:37:12;;;;;;;0.50;0.50;;;24.20;44.80;;;;;;6070411;28;83442;-69
2023/01/05 04:40:13;;;;;;;0.50;0.50;;;24.30;45.00;;;;;;6080662;28;84117;-68
2023/01/05 04:43:22;;;;;;;0.60;0.60;;;24.30;45.20;;;;;;6079551;28;82313;-65
2023/01/05 04:46:23;;;;;;;2.20;0.70;;;24.30;45.20;;;;;;6083146;28;83301;-67
2023/01/05 04:49:26;;;;;;;0.55;0.52;;;24.40;45.30;;;;;;6067265;28;80691;-64
2023/01/05 04:52:27;;;;;;;0.60;0.60;;;24.40;45.50;;;;;;6070585;28;80304;-66
2023/01/05 04:55:28;;;;;;;0.50;0.50;;;24.40;45.60;;;;;;6082913;28;83592;-63
2023/01/05 04:58:28;;;;;;;0.77;0.60;;;24.40;46.40;;;;;;6088509;28;82792;-65
2023/01/05 05:01:31;;;;;;;4.47;0.80;;;24.40;45.90;;;;;;6088193;28;83501;-62
2023/01/05 05:04:34;;;;;;;6.65;0.70;;;24.50;46.20;;;;;;6097496;28;83377;-63
2023/01/05 05:07:36;;;;;;;1.67;0.70;;;24.50;46.20;;;;;;6068932;28;83873;-66
2023/01/05 05:10:37;;;;;;;2.42;0.63;;;24.50;45.90;;;;;;6070951;28;82893;-68
2023/01/05 05:13:38;;;;;;;1.63;0.60;;;24.50;46.00;;;;;;6083400;28;80333;-65
2023/01/05 05:16:39;;;;;;;1.25;0.80;;;24.60;45.80;;;;;;6087043;28;87397;-62
2023/01/05 05:19:41;;;;;;;2.63;0.70;;;24.60;45.70;;;;;;6097349;28;83091;-65
2023/01/05 05:22:42;;;;;;;2.55;1.00;;;24.50;45.80;;;;;;6082924;28;80273;-63
2023/01/05 05:25:45;;;;;;;2.17;0.70;;;24.50;46.20;;;;;;6083510;28;87484;-63
2023/01/05 05:28:46;;;;;;;3.78;0.80;;;24.60;46.50;;;;;;6069611;28;83993;-63
2023/01/05 05:31:47;;;;;;;0.95;0.80;;;24.50;47.00;;;;;;6063349;28;80825;-64
2023/01/05 05:34:47;;;;;;;2.88;0.60;;;24.50;47.60;;;;;;6066338;28;80558;-63
2023/01/05 05:37:48;;;;;;;2.50;0.80;;;24.50;47.60;;;;;;6079696;28;83572;-60
2023/01/05 05:40:48;;;;;;;0.95;0.85;;;24.50;47.60;;;;;;6088367;28;81812;-62
2023/01/05 05:43:49;;;;;;;1.10;0.80;;;24.50;47.70;;;;;;6088602;28;80822;-62
2023/01/05 05:46:49;;;;;;;6.35;0.70;;;24.60;47.40;;;;;;6081167;28;81413;-61
2023/01/05 05:49:50;;;;;;;0.60;0.60;;;24.60;47.30;;;;;;6071884;28;80303;-61
2023/01/05 05:52:50;;;;;;;3.03;0.65;;;24.60;47.50;;;;;;6070425;28;82975;-59
2023/01/05 05:55:51;;;;;;;3.03;0.70;;;24.60;47.20;;;;;;6066751;28;81597;-61
2023/01/05 05:58:51;;;;;;;0.70;0.70;;;24.60;47.10;;;;;;6069575;28;81313;-66
2023/01/05 06:01:52;;;;;;;1.50;0.88;;;24.60;47.10;;;;;;6060115;28;83582;-62
2023/01/05 06:04:52;;;;;;;0.82;0.70;;;24.60;47.50;;;;;;6057733;28;87118;-64
2023/01/05 06:07:53;;;;;;;7.50;1.23;;;24.60;47.70;;;;;;6065976;28;83736;-66
2023/01/05 06:10:54;;;;;;;4.32;0.95;;;24.60;47.80;;;;;;6067414;28;81303;-71
2023/01/05 06:13:54;;;;;;;6.28;0.90;;;24.60;48.50;;;;;;6053704;28;80896;-62
2023/01/05 06:16:55;;;;;;;4.40;1.13;;;24.50;47.80;;;;;;6062027;28;80554;-65
2023/01/05 06:19:55;;;;;;;2.35;0.85;;;24.60;48.10;;;;;;6068038;28;82743;-63
2023/01/05 06:22:56;;;;;;;1.10;1.00;;;24.50;47.90;;;;;;6066758;28;80113;-64
2023/01/05 06:25:56;;;;;;;3.45;1.20;;;24.50;47.70;;;;;;6073767;28;82550;-64
2023/01/05 06:28:57;;;;;;;1.58;1.10;;;24.40;47.50;;;;;;6078159;28;80273;-65
2023/01/05 06:31:57;;;;;;;1.42;0.90;;;24.40;47.40;;;;;;6079506;28;80487;-64
2023/01/05 06:34:58;;;;;;;3.75;1.30;;;24.40;47.20;;;;;;6077701;28;81063;-64
2023/01/05 06:37:58;;;;;;;2.28;0.90;;;24.30;47.10;;;;;;6077638;28;80467;-65
2023/01/05 06:40:59;;;;;;;2.47;0.95;;;24.30;47.00;;;;;;6078483;28;80449;-64
2023/01/05 06:43:59;;;;;;;1.30;0.90;;;24.20;46.90;;;;;;6078133;28;81957;-64
2023/01/05 06:47:00;;;;;;;1.40;1.00;;;24.20;46.70;;;;;;6083352;28;80640;-63
2023/01/05 06:50:00;;;;;;;1.42;0.90;;;24.20;46.70;;;;;;6077981;28;81981;-64
2023/01/05 06:53:01;;;;;;;2.65;1.00;;;24.20;46.60;;;;;;6078241;28;80382;-65
2023/01/05 06:56:01;;;;;;;2.42;1.42;;;24.10;46.40;;;;;;6078199;28;81264;-64
2023/01/05 06:59:02;;;;;;;1.63;1.00;;;24.10;46.40;;;;;;6077200;28;80579;-64
2023/01/05 07:02:02;;;;;;;1.77;1.13;;;24.10;46.30;;;;;;6081304;28;80909;-64
2023/01/05 07:05:03;;;;;;;1.38;1.15;;;24.10;46.30;;;;;;6074292;28;82813;-64
2023/01/05 07:08:03;;;;;;;1.52;1.08;;;24.10;46.30;;;;;;6078347;28;81061;-61
2023/01/05 07:11:04;;;;;;;2.97;1.45;;;24.00;46.30;;;;;;6075844;28;81100;-62
2023/01/05 07:14:04;;;;;;;3.90;1.10;;;24.10;46.30;;;;;;6080911;28;81447;-62
2023/01/05 07:17:05;;;;;;;2.15;1.00;;;24.00;46.20;;;;;;6079639;28;80905;-62
2023/01/05 07:20:06;;;;;;;1.65;1.10;;;24.00;46.20;;;;;;6080652;28;82131;-62
2023/01/05 07:23:07;;;;;;;2.53;1.20;;;24.00;46.20;;;;;;6080272;28;80870;-62
2023/01/05 07:26:07;;;;;;;1.83;1.10;;;24.00;46.10;;;;;;6077011;28;80461;-62
2023/01/05 07:29:08;;;;;;;1.98;1.27;;;24.00;46.10;;;;;;6080661;28;80533;-61
2023/01/05 07:32:08;;;;;;;3.60;1.75;;;24.00;46.20;;;;;;6079338;28;81407;-62
2023/01/05 07:35:09;;;;;;;3.78;1.50;;;23.90;46.10;;;;;;6075861;28;82400;-62
2023/01/05 07:38:09;;;;;;;3.08;1.00;;;23.90;46.10;;;;;;6088832;28;80565;-63
2023/01/05 07:41:10;;;;;;;2.60;1.25;;;23.90;46.10;;;;;;6047203;28;85272;-63
2023/01/05 07:44:11;;;;;;;3.38;1.13;;;23.90;46.00;;;;;;6057722;28;80941;-63
2023/01/05 07:47:11;;;;;;;2.22;1.20;;;23.90;46.00;;;;;;6052348;28;81419;-62
2023/01/05 07:50:12;;;;;;;3.13;1.00;;;23.90;45.80;;;;;;6070632;28;81470;-61
2023/01/05 07:53:12;;;;;;;3.40;0.95;;;23.90;45.80;;;;;;6056450;28;80604;-55
2023/01/05 07:56:13;;;;;;;3.58;1.23;;;23.90;45.90;;;;;;6061912;28;80522;-58
2023/01/05 07:59:13;;;;;;;2.08;1.00;;;23.70;43.80;;;;;;6062503;28;85175;-58
2023/01/05 08:02:14;;;;;;;1.30;1.15;;;23.60;42.80;;;;;;6066192;28;81230;-64
2023/01/05 08:05:14;;;;;;;3.42;0.82;;;23.40;43.40;;;;;;6065520;28;84889;-61
2023/01/05 08:08:15;;;;;;;4.18;1.33;;;23.20;43.40;;;;;;6066934;28;83447;-61
2023/01/05 08:11:15;;;;;;;3.70;0.90;;;23.10;43.60;;;;;;6057650;28;82874;-61
2023/01/05 08:14:16;;;;;;;2.00;1.15;;;23.10;43.80;;;;;;6053791;28;80579;-60
2023/01/05 08:17:16;;;;;;;2.45;1.10;;;23.10;44.00;;;;;;6057510;28;80945;-60
2023/01/05 08:20:17;;;;;;;1.60;1.23;;;22.90;44.30;;;;;;6063079;28;80793;-60
2023/01/05 08:23:18;;;;;;;2.95;1.60;;;22.90;44.50;;;;;;6059957;28;80700;-66
2023/01/05 08:26:18;;;;;;;2.97;1.40;;;22.90;44.50;;;;;;6060172;28;81268;-66
2023/01/05 08:29:19;;;;;;;3.33;2.28;;;22.90;44.60;;;;;;6063264;28;85974;-66
2023/01/05 08:32:19;;;;;;;1.88;1.52;;;22.90;44.70;;;;;;6058347;28;84282;-64
2023/01/05 08:35:20;;;;;;;3.95;1.95;;;22.80;44.70;;;;;;6052136;28;83260;-63
2023/01/05 08:38:20;;;;;;;5.40;1.63;;;22.80;44.80;;;;;;6045723;28;80494;-67
2023/01/05 08:41:21;;;;;;;2.50;1.30;;;22.70;44.60;;;;;;6041313;28;80559;-62
2023/01/05 08:44:24;;;;;;;2.47;1.55;;;22.50;45.00;;;;;;5652095;28;84724;-60
2023/01/05 08:47:25;;;;;;;2.38;1.58;;;22.50;45.20;;;;;;5922122;28;83206;-63
2023/01/05 08:50:25;;;;;;;6.75;1.92;;;22.50;45.20;;;;;;6068874;28;81901;-60
2023/01/05 08:53:26;;;;;;;2.72;1.42;;;22.40;45.30;;;;;;6068069;28;81090;-59
2023/01/05 08:56:26;;;;;;;4.75;1.98;;;22.40;45.50;;;;;;6067532;28;81177;-58
2023/01/05 08:59:27;;;;;;;3.08;1.63;;;22.30;45.60;;;;;;6068888;28;85281;-55
2023/01/05 09:02:27;;;;;;;5.35;2.97;;;22.30;45.70;;;;;;6062040;28;83014;-58
2023/01/05 09:05:28;;;;;;;8.30;2.65;;;22.30;45.70;;;;;;6062167;28;83238;-55
2023/01/05 09:08:28;;;;;;;3.30;2.22;;;22.20;45.80;;;;;;6058063;28;83292;-57
2023/01/05 09:11:29;;;;;;;2.63;2.03;;;22.10;45.90;;;;;;6071686;28;87888;-59
2023/01/05 09:14:29;;;;;;;4.07;1.80;;;22.10;45.90;;;;;;6066099;28;86085;-57
2023/01/05 09:17:30;;;;;;;2.92;1.98;;;22.10;46.00;;;;;;6073434;28;81745;-64
2023/01/05 09:20:30;;;;;;;3.60;1.95;;;22.00;46.00;;;;;;6071363;28;80928;-62
2023/01/05 09:23:31;;;;;;;8.50;1.67;;;21.90;46.10;;;;;;6061483;28;80717;-63
2023/01/05 09:26:31;;;;;;;5.38;2.05;;;21.80;46.20;;;;;;6065187;28;87079;-63
2023/01/05 09:29:32;;;;;;;8.93;4.93;;;21.70;46.20;;;;;;6052821;28;81906;-64
2023/01/05 09:32:32;;;;;;;4.55;3.10;;;21.70;46.40;;;;;;6055915;28;80690;-65
2023/01/05 09:35:33;;;;;;;3.65;2.38;;;21.60;46.60;;;;;;6050303;28;80977;-61
2023/01/05 09:38:33;;;;;;;4.53;2.85;;;21.50;46.60;;;;;;6053191;28;82983;-61
2023/01/05 09:41:34;;;;;;;3.28;2.20;;;21.50;47.00;;;;;;6058328;28;81416;-61
2023/01/05 09:44:37;;;;;;;3.17;2.08;;;21.40;46.90;;;;;;6055365;28;80141;-62
2023/01/05 09:47:38;;;;;;;5.50;1.73;;;21.40;46.80;;;;;;6064087;28;85092;-62
2023/01/05 09:50:38;;;;;;;4.53;1.98;;;21.50;46.80;;;;;;6071632;28;83742;-61
2023/01/05 09:53:39;;;;;;;4.25;1.85;;;21.50;46.60;;;;;;6068671;28;80747;-61
2023/01/05 09:56:39;;;;;;;3.35;1.70;;;21.30;46.60;;;;;;6070706;28;80831;-60
2023/01/05 09:59:40;;;;;;;11.52;5.65;;;21.50;46.80;;;;;;6063388;28;83459;-60
2023/01/05 10:02:41;;;;;;;5.22;2.72;;;21.50;46.70;;;;;;6056663;28;81084;-61
2023/01/05 10:05:41;;;;;;;3.30;2.45;;;21.60;46.60;;;;;;6067702;28;80954;-66
2023/01/05 10:08:42;;;;;;;4.15;2.47;;;21.60;46.80;;;;;;6069378;28;81789;-62
2023/01/05 10:15:02;;;;;;;4.28;2.40;;;21.60;46.80;;;;;;6078347;28;83718;-61
2023/01/05 10:18:02;;;;;;;2.25;1.80;;;21.60;46.80;;;;;;6067284;28;81165;-60
2023/01/05 10:21:03;;;;;;;5.35;2.17;;;21.60;46.90;;;;;;6069098;28;87193;-61
2023/01/05 10:24:03;;;;;;;7.88;4.38;;;21.50;46.70;;;;;;6075899;28;81048;-62
2023/01/05 10:27:04;;;;;;;6.13;2.88;;;21.50;46.90;;;;;;6062969;28;83243;-66
2023/01/05 10:30:04;;;;;;;6.25;3.15;;;21.50;46.90;;;;;;6069949;28;86802;-57
2023/01/05 10:33:05;;;;;;;5.43;2.75;;;21.50;46.90;;;;;;6046469;28;80576;-58
2023/01/05 10:36:05;;;;;;;5.95;2.72;;;21.40;47.20;;;;;;6050962;28;81205;-57
2023/01/05 10:39:06;;;;;;;5.18;2.20;;;21.40;47.10;;;;;;6068569;28;81321;-56
2023/01/05 10:42:06;;;;;;;4.03;2.55;;;21.40;47.10;;;;;;6063102;28;80576;-58
2023/01/05 10:45:08;;;;;;;6.10;2.90;;;21.40;47.00;;;;;;6052221;28;87177;-56
2023/01/05 10:48:08;;;;;;;7.40;2.75;;;21.50;46.90;;;;;;6058604;28;80845;-67
2023/01/05 10:51:09;;;;;;;5.80;2.47;;;21.50;46.90;;;;;;6074218;28;81000;-66
2023/01/05 10:54:09;;;;;;;10.15;2.65;;;21.40;46.90;;;;;;6058848;28;80419;-65
2023/01/05 10:57:10;;;;;;;6.30;2.58;;;21.40;46.70;;;;;;6078750;28;80474;-68
2023/01/05 11:00:10;;;;;;;11.95;2.50;;;21.30;46.90;;;;;;6079461;28;80578;-68
2023/01/05 11:03:11;;;;;;;14.18;3.95;;;21.40;46.90;;;;;;6086466;28;80802;-69
2023/01/05 11:06:11;;;;;;;15.98;3.85;;;21.50;46.80;;;;;;6068973;28;81318;-59
2023/01/05 11:09:12;;;;;;;28.50;4.47;;;21.50;46.60;;;;;;6091390;28;80697;-63
2023/01/05 11:12:12;;;;;;;11.32;3.28;;;21.60;46.50;;;;;;6069467;28;81429;-61
2023/01/05 11:15:14;;;;;;;20.02;4.53;;;21.60;46.40;;;;;;6081573;28;81226;-60
2023/01/05 11:18:15;;;;;;;17.40;4.43;;;21.70;46.30;;;;;;6080914;28;80581;-61
2023/01/05 11:21:15;;;;;;;14.52;3.95;;;21.70;46.30;;;;;;6072738;28;80356;-62
2023/01/05 11:24:16;;;;;;;14.40;3.45;;;21.70;46.20;;;;;;6075589;28;80927;-63
2023/01/05 11:27:16;;;;;;;8.93;3.10;;;21.70;46.10;;;;;;6078043;28;80544;-54
2023/01/05 11:30:17;;;;;;;13.15;3.40;;;21.70;46.10;;;;;;6091495;28;81977;-57
2023/01/05 11:33:17;;;;;;;11.75;3.50;;;21.70;46.00;;;;;;6062401;28;81780;-57
2023/01/05 11:36:18;;;;;;;10.52;3.10;;;21.80;46.00;;;;;;6067896;28;81398;-57
2023/01/05 11:39:18;;;;;;;7.85;3.25;;;21.80;45.90;;;;;;6084212;28;80386;-57
2023/01/05 11:42:19;;;;;;;7.63;3.25;;;21.80;45.80;;;;;;6063424;28;88482;-57
2023/01/05 11:45:19;;;;;;;12.63;4.60;;;21.70;45.80;;;;;;6068190;28;80560;-68
2023/01/05 11:48:20;;;;;;;11.55;4.28;;;21.70;45.90;;;;;;6091784;28;80579;-74
2023/01/05 11:51:21;;;;;;;11.77;3.97;;;21.70;45.90;;;;;;6058109;28;82274;-73
2023/01/05 11:54:21;;;;;;;8.82;3.55;;;21.80;45.90;;;;;;6079394;28;80429;-69
2023/01/05 11:57:22;;;;;;;6.32;3.25;;;21.80;45.70;;;;;;6075645;28;82075;-71
2023/01/05 12:00:22;;;;;;;8.43;3.53;;;21.80;45.60;;;;;;6078320;28;81098;-68
2023/01/05 12:03:23;;;;;;;5.15;2.95;;;21.70;45.50;;;;;;6079827;28;80345;-68
2023/01/05 12:06:23;;;;;;;7.50;3.20;;;21.70;45.50;;;;;;6064814;28;80797;-68
2023/01/05 12:09:24;;;;;;;6.82;2.60;;;21.70;45.40;;;;;;6059105;28;80521;-63
2023/01/05 12:12:25;;;;;;;7.20;2.85;;;21.70;45.50;;;;;;6091461;28;80538;-68
2023/01/05 12:15:26;;;;;;;5.70;3.00;;;21.60;45.40;;;;;;6079175;28;80985;-65
2023/01/05 12:18:26;;;;;;;8.75;3.67;;;21.60;45.60;;;;;;6071978;28;81976;-69
2023/01/05 12:21:27;;;;;;;6.43;2.50;;;21.60;45.50;;;;;;6081906;28;80689;-71
2023/01/05 12:24:27;;;;;;;4.72;2.50;;;21.60;45.50;;;;;;6063291;28;81525;-69
2023/01/05 12:27:28;;;;;;;6.97;2.35;;;21.60;45.60;;;;;;6065439;28;83106;-72
2023/01/05 12:30:28;;;;;;;5.32;2.72;;;21.50;45.60;;;;;;6078455;28;86743;-73
2023/01/05 12:33:29;;;;;;;7.55;3.88;;;21.50;45.60;;;;;;6073084;28;81168;-71
2023/01/05 12:36:29;;;;;;;6.00;3.63;;;21.50;46.30;;;;;;6070158;28;80316;-67
2023/01/05 12:39:30;;;;;;;8.38;2.97;;;21.50;45.60;;;;;;6072517;28;80636;-61
2023/01/05 12:42:30;;;;;;;8.88;3.63;;;21.50;45.90;;;;;;6075985;28;80346;-58
2023/01/05 12:45:31;;;;;;;9.40;3.22;;;21.60;45.90;;;;;;6080062;28;81705;-58
2023/01/05 12:48:31;;;;;;;5.32;2.97;;;21.60;46.20;;;;;;6074706;28;80548;-58
2023/01/05 12:51:33;;;;;;;4.85;2.83;;;21.70;46.30;;;;;;6071508;28;80861;-58
2023/01/05 12:54:33;;;;;;;6.95;3.20;;;21.80;46.50;;;;;;6039813;28;80561;-58
2023/01/05 12:57:34;;;;;;;6.45;3.60;;;21.80;46.60;;;;;;6074113;28;80614;-68
2023/01/05 13:00:34;;;;;;;8.55;3.72;;;21.90;46.90;;;;;;6077645;28;84734;-67
2023/01/05 13:03:35;;;;;;;6.97;3.50;;;22.00;46.90;;;;;;6066755;28;83983;-68
2023/01/05 13:06:36;;;;;;;5.93;3.30;;;22.00;46.80;;;;;;6057153;28;84134;-67
2023/01/05 13:09:36;;;;;;;7.63;3.45;;;22.10;46.80;;;;;;6056302;28;80796;-68
2023/01/05 13:12:37;;;;;;;7.43;3.63;;;22.10;46.80;;;;;;6053510;28;80709;-66
2023/01/05 13:15:37;;;;;;;8.00;3.05;;;22.10;47.00;;;;;;6057155;28;83712;-57
2023/01/05 13:18:38;;;;;;;6.82;3.30;;;22.10;46.90;;;;;;6061872;28;80929;-59
2023/01/05 13:21:38;;;;;;;7.20;3.70;;;22.10;47.00;;;;;;6058755;28;83559;-58
2023/01/05 13:24:39;;;;;;;7.30;3.05;;;22.20;46.90;;;;;;6057847;28;80967;-57
2023/01/05 13:27:39;;;;;;;6.88;3.33;;;22.20;47.00;;;;;;6059036;28;80727;-60
2023/01/05 13:30:40;;;;;;;5.97;3.38;;;22.30;46.70;;;;;;6050461;28;82803;-59
2023/01/05 13:33:41;;;;;;;7.13;3.10;;;22.30;46.60;;;;;;6057424;28;82462;-59
2023/01/05 13:36:41;;;;;;;8.43;3.33;;;22.30;46.70;;;;;;6065107;28;82816;-62
2023/01/05 13:39:42;;;;;;;7.30;3.65;;;22.30;46.20;;;;;;6058428;28;81887;-61
2023/01/05 13:42:42;;;;;;;6.05;3.25;;;22.20;46.00;;;;;;6069734;28;81651;-61
2023/01/05 13:45:43;;;;;;;6.35;3.25;;;22.30;46.60;;;;;;6068430;28;81299;-62
2023/01/05 13:48:44;;;;;;;7.43;3.30;;;22.40;46.40;;;;;;6076122;28;86131;-63
2023/01/05 13:51:44;;;;;;;6.22;3.15;;;22.40;46.40;;;;;;6070809;28;84711;-64
2023/01/05 13:54:45;;;;;;;6.15;3.25;;;22.50;46.30;;;;;;6067334;28;81431;-62
2023/01/05 13:57:45;;;;;;;6.90;3.55;;;22.60;46.50;;;;;;6066588;28;81196;-59
2023/01/05 14:00:46;;;;;;;4.97;2.60;;;22.60;46.20;;;;;;6060311;28;82156;-58
2023/01/05 14:03:46;;;;;;;6.57;3.45;;;22.60;46.50;;;;;;6068479;28;86801;-61
2023/01/05 14:06:47;;;;;;;6.97;3.20;;;22.60;46.40;;;;;;6064011;28;80193;-60
2023/01/05 14:09:47;;;;;;;5.57;2.50;;;22.70;46.70;;;;;;6061895;28;80836;-62
2023/01/05 14:12:48;;;;;;;10.80;3.03;;;22.80;46.70;;;;;;6061453;28;81399;-66
2023/01/05 14:15:48;;;;;;;5.38;2.65;;;22.80;46.80;;;;;;6065008;28;83350;-64
2023/01/05 14:18:49;;;;;;;18.45;4.93;;;22.80;46.60;;;;;;6070338;28;84463;-65
2023/01/05 14:21:50;;;;;;;11.88;5.50;;;22.90;46.90;;;;;;6088515;28;80541;-62
2023/01/05 14:24:51;;;;;;;14.30;5.38;;;22.90;47.00;;;;;;6059916;28;80500;-64
2023/01/05 14:27:51;;;;;;;11.63;4.75;;;22.90;47.40;;;;;;6054201;28;81050;-63
2023/01/05 14:30:52;;;;;;;9.23;4.40;;;22.90;47.50;;;;;;6053655;28;80259;-59
2023/01/05 14:33:52;;;;;;;13.95;4.43;;;23.00;47.70;;;;;;6064968;28;81090;-59
2023/01/05 14:36:53;;;;;;;5.75;3.65;;;23.00;47.40;;;;;;6065232;28;85642;-59
2023/01/05 14:39:54;;;;;;;6.97;3.53;;;23.00;47.20;;;;;;6052067;28;82109;-60
2023/01/05 14:42:54;;;;;;;8.55;3.03;;;23.10;47.20;;;;;;6059318;28;80985;-60
2023/01/05 14:45:55;;;;;;;8.27;3.38;;;23.20;47.00;;;;;;6059578;28;81807;-60
2023/01/05 14:48:55;;;;;;;6.70;3.15;;;23.20;46.80;;;;;;6064264;28;81188;-60
2023/01/05 14:51:56;;;;;;;8.48;3.72;;;23.30;46.90;;;;;;6062465;28;80779;-59
2023/01/05 14:54:57;;;;;;;10.38;3.55;;;23.40;46.80;;;;;;6073775;28;81041;-60
2023/01/05 14:57:57;;;;;;;15.07;3.85;;;23.40;46.90;;;;;;6067108;28;80647;-62
2023/01/05 15:00:58;;;;;;;8.45;3.25;;;23.50;46.90;;;;;;6063550;28;83821;-61
2023/01/05 15:03:58;;;;;;;6.88;3.05;;;23.50;46.80;;;;;;6083191;28;81592;-63
2023/01/05 15:06:59;;;;;;;11.48;3.55;;;23.50;46.70;;;;;;6058069;28;80968;-64
2023/01/05 15:09:59;;;;;;;6.80;3.13;;;23.60;46.50;;;;;;6079481;28;80163;-66
2023/01/05 15:13:00;;;;;;;8.90;3.22;;;23.60;46.20;;;;;;6071521;28;80905;-62
2023/01/05 15:16:00;;;;;;;8.90;3.05;;;23.60;46.00;;;;;;6067288;28;81426;-63
2023/01/05 15:19:01;;;;;;;7.05;2.70;;;23.60;45.80;;;;;;6072368;28;81065;-61
2023/01/05 15:22:02;;;;;;;10.18;2.63;;;23.60;45.50;;;;;;6070242;28;80868;-64
2023/01/05 15:25:02;;;;;;;6.70;3.03;;;23.70;45.50;;;;;;6073774;28;80580;-64
2023/01/05 15:28:03;;;;;;;6.10;2.60;;;23.70;45.40;;;;;;6059244;28;81091;-68
2023/01/05 15:31:04;;;;;;;6.55;3.08;;;23.70;45.40;;;;;;6058805;28;84212;-70
2023/01/05 15:34:05;;;;;;;5.63;2.67;;;23.70;45.30;;;;;;6056163;28;81630;-69
2023/01/05 15:37:06;;;;;;;5.50;2.35;;;23.80;45.20;;;;;;6056616;28;80875;-70
2023/01/05 15:40:08;;;;;;;5.47;2.58;;;23.70;45.00;;;;;;6064845;28;81049;-71
2023/01/05 15:43:08;;;;;;;5.90;2.20;;;23.70;45.00;;;;;;6057652;28;80190;-71
2023/01/05 15:46:09;;;;;;;4.70;2.38;;;23.80;44.70;;;;;;6038205;28;85486;-72
2023/01/05 15:49:09;;;;;;;4.63;2.30;;;23.80;44.60;;;;;;6062763;28;80563;-64
2023/01/05 15:52:10;;;;;;;6.15;1.95;;;23.80;44.40;;;;;;6048765;28;80676;-69
2023/01/05 15:55:10;;;;;;;6.82;2.00;;;23.80;44.80;;;;;;6057221;28;80608;-74
2023/01/05 15:58:11;;;;;;;7.22;2.40;;;23.90;45.40;;;;;;6049629;28;81641;-69
2023/01/05 16:01:11;;;;;;;8.02;2.22;;;23.90;46.70;;;;;;6047772;28;83497;-71
2023/01/05 16:04:12;;;;;;;2.95;2.05;;;23.90;47.20;;;;;;6048772;28;80303;-70
2023/01/05 16:07:12;;;;;;;4.20;2.22;;;24.00;47.30;;;;;;6053545;28;80544;-69
2023/01/05 16:10:13;;;;;;;4.05;2.03;;;23.90;47.10;;;;;;6050241;28;81583;-72
2023/01/05 16:13:13;;;;;;;4.55;1.98;;;23.90;47.10;;;;;;6048181;28;84409;-72